createdAt,value
2018-08-28T00:01:06.636Z,88.10
2018-08-28T00:03:34.683Z,88.10
2018-08-28T00:06:02.767Z,88.10
2018-08-28T00:08:30.804Z,88.20
2018-08-28T00:10:58.843Z,88.70
2018-08-28T00:13:26.880Z,88.30
2018-08-28T00:15:54.926Z,88.30
2018-08-28T00:18:22.968Z,88.20
2018-08-28T00:20:51.019Z,88.50
2018-08-28T00:23:19.056Z,88.50
2018-08-28T00:25:47.100Z,88.60
2018-08-28T00:28:15.143Z,88.50
2018-08-28T00:30:43.201Z,88.60
2018-08-28T00:33:11.341Z,88.60
2018-08-28T00:35:39.725Z,88.50
2018-08-28T00:38:07.769Z,88.50
2018-08-28T00:40:35.959Z,88.60
2018-08-28T00:43:03.999Z,88.80
2018-08-28T00:45:32.052Z,89.00
2018-08-28T00:48:00.100Z,89.20
2018-08-28T00:50:28.140Z,89.50
2018-08-28T00:52:56.185Z,89.50
2018-08-28T00:55:24.285Z,89.70
2018-08-28T00:57:52.453Z,90.00
2018-08-28T01:00:20.496Z,90.10
2018-08-28T01:02:48.543Z,90.20
2018-08-28T01:05:16.605Z,90.30
2018-08-28T01:07:44.749Z,90.40
2018-08-28T01:10:12.767Z,90.40
2018-08-28T01:12:40.823Z,90.50
2018-08-28T01:15:09.252Z,90.60
2018-08-28T01:17:37.301Z,90.70
2018-08-28T01:20:05.901Z,91.10
2018-08-28T01:22:33.948Z,91.10
2018-08-28T01:25:01.980Z,91.20
2018-08-28T01:27:30.129Z,91.10
2018-08-28T01:29:58.163Z,91.40
2018-08-28T01:32:26.207Z,91.60
2018-08-28T01:34:54.247Z,91.70
2018-08-28T01:37:22.291Z,92.00
2018-08-28T01:39:50.316Z,92.20
2018-08-28T01:42:20.909Z,92.30
2018-08-28T01:44:49.783Z,92.40
2018-08-28T01:47:18.075Z,92.60
2018-08-28T01:49:47.028Z,92.70
2018-08-28T01:52:15.073Z,92.80
2018-08-28T01:54:43.103Z,92.90
2018-08-28T01:57:11.144Z,93.10
2018-08-28T01:59:39.189Z,93.20
2018-08-28T02:02:07.245Z,93.10
2018-08-28T02:04:35.465Z,93.10
2018-08-28T02:07:03.669Z,93.10
2018-08-28T02:09:31.829Z,93.20
2018-08-28T02:11:59.919Z,93.20
2018-08-28T02:14:27.991Z,93.30
2018-08-28T02:16:56.058Z,93.50
2018-08-28T02:19:24.099Z,93.60
2018-08-28T02:21:52.148Z,93.80
2018-08-28T02:24:20.209Z,94.00
2018-08-28T02:26:48.311Z,94.20
2018-08-28T02:29:16.360Z,94.40
2018-08-28T02:31:44.411Z,94.60
2018-08-28T02:34:12.536Z,94.70
2018-08-28T02:36:40.590Z,94.90
2018-08-28T02:39:09.846Z,95.20
2018-08-28T02:41:38.292Z,95.20
2018-08-28T02:44:06.338Z,95.30
2018-08-28T02:46:34.530Z,95.50
2018-08-28T02:49:02.567Z,95.60
2018-08-28T02:51:31.538Z,95.80
2018-08-28T02:53:59.580Z,96.00
2018-08-28T02:56:28.061Z,96.10
2018-08-28T02:58:56.624Z,96.30
2018-08-28T03:01:24.660Z,96.40
2018-08-28T03:03:52.858Z,96.40
2018-08-28T03:06:21.161Z,96.50
2018-08-28T03:08:49.312Z,96.50
2018-08-28T03:11:17.495Z,96.30
2018-08-28T03:13:45.563Z,96.00
2018-08-28T03:16:13.608Z,96.00
2018-08-28T03:18:41.669Z,96.00
2018-08-28T03:21:09.711Z,96.00
2018-08-28T03:23:38.148Z,95.90
2018-08-28T03:26:06.175Z,95.90
2018-08-28T03:28:34.205Z,95.80
2018-08-28T03:31:02.270Z,95.90
2018-08-28T03:33:30.311Z,95.80
2018-08-28T03:35:58.347Z,95.90
2018-08-28T03:38:26.401Z,95.90
2018-08-28T03:40:54.423Z,96.00
2018-08-28T03:43:22.467Z,96.10
2018-08-28T03:45:50.492Z,96.20
2018-08-28T03:48:18.537Z,96.40
2018-08-28T03:50:46.559Z,96.50
2018-08-28T03:53:14.601Z,96.60
2018-08-28T03:55:42.620Z,96.90
2018-08-28T03:58:10.671Z,97.10
2018-08-28T04:00:38.708Z,97.30
2018-08-28T04:03:06.780Z,97.50
2018-08-28T04:05:34.843Z,97.70
2018-08-28T04:08:02.964Z,97.80
2018-08-28T04:10:31.013Z,98.00
2018-08-28T04:12:59.092Z,98.20
2018-08-28T04:15:27.141Z,98.20
2018-08-28T04:17:55.203Z,98.10
2018-08-28T04:20:23.265Z,98.20
2018-08-28T04:22:51.320Z,98.20
2018-08-28T04:25:19.367Z,98.10
2018-08-28T04:27:47.992Z,98.00
2018-08-28T04:30:16.090Z,97.90
2018-08-28T04:32:44.127Z,97.90
2018-08-28T04:35:12.194Z,97.50
2018-08-28T04:37:40.257Z,97.40
2018-08-28T04:40:08.321Z,97.30
2018-08-28T04:42:36.384Z,97.20
2018-08-28T04:45:04.477Z,97.00
2018-08-28T04:47:32.583Z,97.30
2018-08-28T04:50:00.653Z,97.30
2018-08-28T04:52:28.783Z,97.40
2018-08-28T04:54:56.882Z,97.30
2018-08-28T04:57:24.935Z,97.30
2018-08-28T04:59:52.976Z,97.30
2018-08-28T05:02:21.027Z,97.60
2018-08-28T05:04:49.071Z,97.10
2018-08-28T05:07:17.136Z,96.90
2018-08-28T05:09:45.164Z,96.80
2018-08-28T05:12:13.228Z,96.60
2018-08-28T05:14:41.277Z,96.50
2018-08-28T05:17:09.323Z,96.30
2018-08-28T05:19:37.373Z,96.10
2018-08-28T05:22:05.415Z,95.80
2018-08-28T05:24:33.692Z,95.50
2018-08-28T05:27:01.736Z,95.00
2018-08-28T05:29:29.798Z,94.70
2018-08-28T05:31:57.844Z,94.50
2018-08-28T05:34:25.896Z,94.50
2018-08-28T05:36:53.920Z,94.50
2018-08-28T05:39:21.959Z,94.40
2018-08-28T05:41:49.987Z,94.40
2018-08-28T05:44:18.605Z,94.30
2018-08-28T05:46:46.631Z,94.30
2018-08-28T05:49:14.668Z,94.30
2018-08-28T05:51:42.696Z,94.30
2018-08-28T05:54:10.732Z,94.20
2018-08-28T05:56:38.776Z,94.20
2018-08-28T05:59:06.825Z,93.80
2018-08-28T06:01:35.320Z,93.80
2018-08-28T06:04:03.516Z,94.10
2018-08-28T06:06:31.547Z,93.60
2018-08-28T06:08:59.670Z,93.60
2018-08-28T06:11:27.656Z,93.50
2018-08-28T06:13:56.372Z,93.40
2018-08-28T06:16:24.423Z,93.30
2018-08-28T06:18:52.448Z,93.20
2018-08-28T06:21:20.489Z,93.00
2018-08-28T06:23:48.527Z,92.90
2018-08-28T06:26:16.601Z,92.70
2018-08-28T06:28:45.001Z,92.70
2018-08-28T06:31:13.038Z,92.50
2018-08-28T06:33:41.081Z,92.50
2018-08-28T06:36:09.169Z,92.40
2018-08-28T06:38:37.231Z,92.20
2018-08-28T06:41:05.303Z,92.10
2018-08-28T06:43:33.439Z,91.90
2018-08-28T06:46:01.459Z,91.70
2018-08-28T06:48:29.504Z,91.50
2018-08-28T06:50:57.619Z,91.10
2018-08-28T06:53:25.679Z,91.10
2018-08-28T06:55:53.719Z,91.00
2018-08-28T06:58:21.791Z,90.60
2018-08-28T07:00:49.833Z,90.40
2018-08-28T07:03:17.946Z,90.00
2018-08-28T07:05:45.952Z,88.90
2018-08-28T07:08:14.129Z,89.10
2018-08-28T07:10:42.156Z,87.60
2018-08-28T07:13:10.186Z,87.10
2018-08-28T07:15:38.219Z,86.60
2018-08-28T07:18:06.256Z,85.90
2018-08-28T07:20:34.406Z,84.40
2018-08-28T07:23:02.441Z,83.80
2018-08-28T07:25:30.491Z,82.60
2018-08-28T07:27:58.515Z,81.90
2018-08-28T07:30:26.657Z,81.20
2018-08-28T07:32:54.688Z,80.40
2018-08-28T07:35:22.725Z,79.00
2018-08-28T07:37:50.784Z,77.70
2018-08-28T07:40:18.840Z,76.20
2018-08-28T07:42:46.951Z,74.10
2018-08-28T07:45:14.954Z,73.60
2018-08-28T07:47:42.990Z,73.50
2018-08-28T07:50:11.048Z,73.10
2018-08-28T07:52:39.088Z,73.10
2018-08-28T07:55:07.128Z,72.00
2018-08-28T07:57:35.191Z,71.60
2018-08-28T08:00:03.249Z,70.40
2018-08-28T08:02:31.324Z,70.00
2018-08-28T08:04:59.379Z,69.80
2018-08-28T08:07:27.434Z,69.60
2018-08-28T08:09:55.496Z,68.50
2018-08-28T08:12:23.542Z,66.70
2018-08-28T08:14:51.596Z,66.00
2018-08-28T08:17:19.659Z,62.40
2018-08-28T08:19:47.713Z,60.70
2018-08-28T08:22:15.802Z,60.40
2018-08-28T08:24:44.000Z,60.90
2018-08-28T08:27:12.049Z,59.60
2018-08-28T08:29:40.109Z,59.80
2018-08-28T08:32:08.162Z,59.10
2018-08-28T08:34:36.329Z,60.00
2018-08-28T08:37:04.372Z,59.50
2018-08-28T08:39:32.420Z,58.80
2018-08-28T08:42:00.990Z,57.80
2018-08-28T08:44:29.040Z,56.30
2018-08-28T08:46:57.104Z,56.40
2018-08-28T08:49:25.159Z,55.80
2018-08-28T08:51:53.287Z,55.20
2018-08-28T08:54:21.333Z,54.30
2018-08-28T08:56:49.404Z,54.90
2018-08-28T08:59:17.457Z,54.40
2018-08-28T09:01:45.513Z,54.40
2018-08-28T09:04:14.459Z,53.60
2018-08-28T09:06:42.497Z,52.90
2018-08-28T09:09:10.558Z,54.30
2018-08-28T09:11:38.584Z,52.90
2018-08-28T09:14:06.853Z,53.20
2018-08-28T09:16:34.907Z,52.60
2018-08-28T09:19:03.272Z,52.80
2018-08-28T09:21:31.366Z,52.90
2018-08-28T09:23:59.523Z,52.70
2018-08-28T09:26:27.563Z,51.70
2018-08-28T09:28:55.596Z,53.10
2018-08-28T09:31:23.637Z,54.60
2018-08-28T09:33:51.681Z,55.20
2018-08-28T09:36:19.788Z,56.00
2018-08-28T09:38:47.901Z,55.70
2018-08-28T09:41:15.872Z,55.80
2018-08-28T09:43:43.912Z,56.20
2018-08-28T09:46:11.995Z,56.80
2018-08-28T09:48:40.061Z,57.00
2018-08-28T09:51:08.142Z,56.00
2018-08-28T09:53:36.145Z,54.90
2018-08-28T09:56:04.176Z,54.10
2018-08-28T09:58:32.205Z,53.30
2018-08-28T10:01:05.748Z,52.90
2018-08-28T10:03:33.796Z,52.80
2018-08-28T10:06:01.841Z,53.30
2018-08-28T10:08:29.883Z,53.10
2018-08-28T10:10:57.995Z,53.10
2018-08-28T10:13:26.009Z,52.50
2018-08-28T10:15:54.068Z,53.10
2018-08-28T10:18:22.120Z,53.10
2018-08-28T10:20:50.169Z,53.90
2018-08-28T10:23:18.213Z,53.50
2018-08-28T10:25:46.273Z,52.50
2018-08-28T10:28:14.308Z,51.40
2018-08-28T10:30:42.356Z,51.80
2018-08-28T10:33:10.399Z,52.00
2018-08-28T10:35:38.608Z,52.60
2018-08-28T10:38:06.713Z,52.20
2018-08-28T10:40:34.729Z,53.10
2018-08-28T10:43:02.779Z,52.80
2018-08-28T10:45:30.908Z,53.60
2018-08-28T10:47:58.947Z,53.90
2018-08-28T10:50:27.000Z,54.10
2018-08-28T10:52:55.052Z,53.80
2018-08-28T10:55:23.102Z,53.40
2018-08-28T10:57:52.068Z,52.90
2018-08-28T11:00:20.130Z,52.20
2018-08-28T11:02:48.168Z,51.70
2018-08-28T11:05:16.215Z,51.60
2018-08-28T11:07:44.338Z,52.70
2018-08-28T11:10:12.412Z,54.60
2018-08-28T11:12:40.701Z,53.90
2018-08-28T11:15:08.874Z,53.10
2018-08-28T11:17:36.921Z,52.10
2018-08-28T11:20:04.947Z,52.60
2018-08-28T11:22:32.987Z,52.70
2018-08-28T11:25:01.021Z,52.00
2018-08-28T11:27:29.455Z,51.90
2018-08-28T11:29:57.488Z,51.50
2018-08-28T11:32:25.536Z,51.20
2018-08-28T11:34:53.593Z,51.00
2018-08-28T11:37:21.647Z,51.30
2018-08-28T11:39:49.671Z,50.60
2018-08-28T11:42:17.720Z,50.50
2018-08-28T11:44:45.756Z,50.90
2018-08-28T11:47:13.851Z,51.20
2018-08-28T11:49:41.867Z,51.60
2018-08-28T11:52:09.912Z,51.60
2018-08-28T11:54:37.950Z,52.30
2018-08-28T11:57:06.009Z,52.70
2018-08-28T11:59:34.064Z,52.50
2018-08-28T12:02:02.138Z,52.80
2018-08-28T12:04:30.980Z,52.40
2018-08-28T12:06:59.504Z,52.50
2018-08-28T12:09:27.581Z,52.50
2018-08-28T12:11:55.624Z,52.20
2018-08-28T12:14:23.659Z,51.80
2018-08-28T12:16:51.705Z,52.40
2018-08-28T12:19:19.732Z,52.50
2018-08-28T12:21:47.785Z,52.10
2018-08-28T12:24:15.825Z,52.40
2018-08-28T12:26:43.996Z,52.40
2018-08-28T12:29:12.096Z,52.70
2018-08-28T12:31:40.161Z,51.90
2018-08-28T12:34:08.184Z,51.60
2018-08-28T12:36:36.384Z,51.80
2018-08-28T12:39:05.312Z,51.70
2018-08-28T12:41:33.363Z,51.70
2018-08-28T12:44:01.601Z,52.00
2018-08-28T12:46:29.452Z,51.30
2018-08-28T12:48:57.498Z,51.30
2018-08-28T12:51:25.567Z,51.50
2018-08-28T12:53:53.568Z,51.50
2018-08-28T12:56:21.622Z,51.80
2018-08-28T12:58:49.667Z,51.90
2018-08-28T13:01:17.723Z,52.10
2018-08-28T13:03:45.793Z,51.80
2018-08-28T13:06:13.865Z,51.30
2018-08-28T13:08:41.908Z,52.00
2018-08-28T13:11:09.973Z,52.00
2018-08-28T13:13:38.040Z,51.90
2018-08-28T13:16:06.096Z,51.60
2018-08-28T13:18:34.157Z,51.80
2018-08-28T13:21:02.216Z,51.90
2018-08-28T13:23:30.427Z,52.20
2018-08-28T13:25:58.506Z,51.60
2018-08-28T13:28:26.512Z,51.80
2018-08-28T13:30:55.287Z,51.70
2018-08-28T13:33:23.368Z,51.00
2018-08-28T13:35:51.428Z,51.90
2018-08-28T13:38:19.467Z,52.00
2018-08-28T13:40:47.679Z,52.10
2018-08-28T13:43:15.584Z,52.70
2018-08-28T13:45:43.933Z,53.00
2018-08-28T13:48:12.217Z,53.20
2018-08-28T13:50:40.263Z,52.90
2018-08-28T13:53:08.308Z,53.00
2018-08-28T13:55:36.360Z,53.00
2018-08-28T13:58:04.437Z,52.40
2018-08-28T14:00:32.483Z,52.40
2018-08-28T14:03:00.533Z,52.20
2018-08-28T14:05:28.587Z,52.00
2018-08-28T14:07:56.660Z,51.50
2018-08-28T14:10:24.711Z,51.50
2018-08-28T14:12:52.772Z,51.50
2018-08-28T14:15:20.836Z,51.90
2018-08-28T14:17:48.879Z,52.10
2018-08-28T14:20:16.915Z,51.80
2018-08-28T14:22:45.109Z,51.80
2018-08-28T14:25:13.149Z,51.90
2018-08-28T14:27:41.252Z,51.90
2018-08-28T14:30:09.304Z,52.10
2018-08-28T14:32:37.373Z,52.20
2018-08-28T14:35:05.433Z,51.90
2018-08-28T14:37:33.513Z,52.50
2018-08-28T14:40:01.601Z,52.30
2018-08-28T14:42:30.301Z,52.90
2018-08-28T14:44:58.264Z,52.90
2018-08-28T14:47:26.333Z,53.30
2018-08-28T14:49:54.581Z,53.50
2018-08-28T14:52:22.469Z,53.60
2018-08-28T14:54:50.543Z,53.00
2018-08-28T14:57:18.612Z,52.90
2018-08-28T14:59:46.656Z,53.30
2018-08-28T15:02:15.307Z,53.10
2018-08-28T15:04:43.410Z,53.30
2018-08-28T15:07:11.765Z,53.10
2018-08-28T15:09:39.548Z,53.50
2018-08-28T15:12:07.610Z,53.30
2018-08-28T15:14:35.653Z,53.10
2018-08-28T15:17:03.725Z,53.50
2018-08-28T15:19:31.785Z,53.50
2018-08-28T15:21:59.844Z,53.70
2018-08-28T15:24:27.904Z,53.80
2018-08-28T15:26:55.952Z,54.10
2018-08-28T15:29:24.001Z,54.30
2018-08-28T15:31:52.039Z,54.30
2018-08-28T15:34:20.105Z,55.30
2018-08-28T15:36:48.143Z,55.70
2018-08-28T15:39:16.202Z,55.90
2018-08-28T15:41:44.242Z,56.40
2018-08-28T15:44:12.381Z,56.50
2018-08-28T15:46:40.426Z,57.10
2018-08-28T15:49:08.529Z,56.90
2018-08-28T15:51:36.668Z,56.90
2018-08-28T15:54:04.665Z,56.70
2018-08-28T15:56:32.714Z,57.40
2018-08-28T15:59:00.885Z,56.80
2018-08-28T16:01:28.909Z,57.20
2018-08-28T16:03:56.966Z,57.40
2018-08-28T16:06:25.007Z,57.40
2018-08-28T16:08:53.056Z,57.30
2018-08-28T16:11:21.110Z,57.70
2018-08-28T16:13:49.170Z,57.70
2018-08-28T16:16:17.211Z,58.00
2018-08-28T16:18:45.281Z,58.10
2018-08-28T16:21:13.313Z,58.50
2018-08-28T16:23:43.791Z,59.10
2018-08-28T16:26:11.822Z,58.80
2018-08-28T16:28:39.871Z,59.20
2018-08-28T16:31:07.908Z,59.40
2018-08-28T16:33:36.031Z,59.40
2018-08-28T16:36:04.084Z,59.50
2018-08-28T16:38:32.123Z,59.40
2018-08-28T16:41:00.176Z,59.90
2018-08-28T16:43:28.764Z,59.80
2018-08-28T16:45:56.815Z,59.70
2018-08-28T16:48:24.864Z,60.20
2018-08-28T16:50:52.925Z,60.00
2018-08-28T16:53:20.972Z,60.20
2018-08-28T16:55:49.710Z,60.50
2018-08-28T16:58:17.800Z,60.20
2018-08-28T17:00:45.900Z,60.50
2018-08-28T17:03:13.960Z,60.60
2018-08-28T17:05:42.028Z,60.70
2018-08-28T17:08:10.067Z,60.90
2018-08-28T17:10:38.113Z,61.10
2018-08-28T17:13:06.178Z,61.20
2018-08-28T17:15:34.219Z,61.50
2018-08-28T17:18:02.288Z,62.50
2018-08-28T17:20:30.384Z,62.00
2018-08-28T17:22:58.418Z,62.10
2018-08-28T17:25:26.487Z,62.80
2018-08-28T17:27:54.578Z,61.80
2018-08-28T17:30:22.611Z,62.00
2018-08-28T17:32:50.636Z,62.20
2018-08-28T17:35:18.671Z,62.60
2018-08-28T17:37:46.779Z,63.60
2018-08-28T17:40:14.811Z,63.00
2018-08-28T17:42:42.946Z,63.40
2018-08-28T17:45:10.924Z,63.60
2018-08-28T17:47:38.961Z,63.60
2018-08-28T17:50:07.083Z,64.00
2018-08-28T17:52:35.157Z,64.30
2018-08-28T17:55:03.202Z,64.50
2018-08-28T17:57:31.240Z,64.80
2018-08-28T17:59:59.287Z,65.30
2018-08-28T18:02:27.320Z,66.40
2018-08-28T18:04:55.451Z,65.50
2018-08-28T18:07:23.526Z,66.10
2018-08-28T18:09:51.699Z,67.80
2018-08-28T18:12:19.727Z,67.60
2018-08-28T18:14:47.762Z,69.00
2018-08-28T18:17:15.797Z,70.00
2018-08-28T18:19:43.842Z,70.90
2018-08-28T18:22:12.028Z,71.50
2018-08-28T18:24:40.076Z,72.00
2018-08-28T18:27:08.124Z,72.70
2018-08-28T18:29:36.164Z,73.40
2018-08-28T18:32:04.204Z,73.80
2018-08-28T18:34:32.388Z,74.30
2018-08-28T18:37:00.397Z,74.70
2018-08-28T18:39:28.455Z,75.20
2018-08-28T18:41:56.503Z,75.50
2018-08-28T18:44:24.544Z,76.00
2018-08-28T18:46:53.137Z,76.40
2018-08-28T18:49:21.159Z,76.60
2018-08-28T18:51:49.189Z,77.10
2018-08-28T18:54:17.240Z,77.40
2018-08-28T18:56:45.286Z,77.90
2018-08-28T18:59:13.329Z,78.30
2018-08-28T19:01:41.363Z,78.60
2018-08-28T19:04:09.423Z,78.90
2018-08-28T19:06:37.452Z,79.30
2018-08-28T19:09:05.608Z,79.70
2018-08-28T19:11:33.775Z,79.80
2018-08-28T19:14:02.526Z,80.20
2018-08-28T19:16:31.047Z,80.30
2018-08-28T19:18:59.132Z,80.90
2018-08-28T19:21:27.179Z,81.10
2018-08-28T19:23:55.223Z,81.50
2018-08-28T19:26:23.290Z,81.80
2018-08-28T19:28:51.337Z,82.40
2018-08-28T19:31:19.393Z,82.60
2018-08-28T19:33:47.452Z,82.80
2018-08-28T19:36:15.525Z,83.40
2018-08-28T19:38:43.575Z,83.60
2018-08-28T19:41:12.593Z,83.80
2018-08-28T19:43:40.640Z,84.00
2018-08-28T19:46:08.691Z,84.20
2018-08-28T19:48:36.877Z,84.50
2018-08-28T19:51:05.103Z,84.80
2018-08-28T19:53:33.206Z,85.40
2018-08-28T19:56:01.221Z,85.00
2018-08-28T19:58:29.267Z,85.30
2018-08-28T20:00:57.334Z,85.50
2018-08-28T20:03:25.613Z,86.00
2018-08-28T20:05:53.758Z,86.40
2018-08-28T20:08:21.747Z,86.50
2018-08-28T20:10:49.787Z,87.00
2018-08-28T20:13:17.828Z,87.70
2018-08-28T20:15:45.880Z,87.40
2018-08-28T20:18:13.928Z,87.80
2018-08-28T20:20:42.247Z,88.10
2018-08-28T20:23:10.240Z,88.40
2018-08-28T20:25:38.288Z,88.60
2018-08-28T20:28:06.335Z,89.00
2018-08-28T20:30:34.379Z,89.00
2018-08-28T20:33:02.429Z,89.10
2018-08-28T20:35:30.467Z,90.00
2018-08-28T20:37:58.515Z,89.90
2018-08-28T20:40:26.575Z,90.00
2018-08-28T20:42:54.628Z,90.10
2018-08-28T20:45:22.683Z,90.30
2018-08-28T20:47:50.751Z,90.30
2018-08-28T20:50:18.859Z,90.50
2018-08-28T20:52:47.121Z,90.50
2018-08-28T20:55:15.204Z,90.70
2018-08-28T20:57:43.255Z,90.70
2018-08-28T21:00:11.318Z,90.70
2018-08-28T21:02:39.673Z,91.20
2018-08-28T21:05:07.745Z,91.00
2018-08-28T21:07:35.815Z,91.10
2018-08-28T21:10:04.012Z,91.10
2018-08-28T21:12:32.320Z,91.30
2018-08-28T21:15:00.350Z,91.30
2018-08-28T21:17:28.412Z,91.40
2018-08-28T21:19:56.478Z,91.50
2018-08-28T21:22:24.529Z,91.60
2018-08-28T21:24:52.576Z,91.80
2018-08-28T21:27:20.644Z,91.80
2018-08-28T21:29:48.701Z,92.00
2018-08-28T21:32:16.750Z,92.00
2018-08-28T21:34:44.798Z,92.10
2018-08-28T21:37:12.927Z,92.10
2018-08-28T21:39:40.975Z,92.20
2018-08-28T21:42:09.071Z,92.30
2018-08-28T21:44:37.086Z,92.30
2018-08-28T21:47:05.188Z,92.40
2018-08-28T21:49:33.240Z,92.50
2018-08-28T21:52:01.286Z,92.30
2018-08-28T21:54:29.319Z,92.60
2018-08-28T21:56:57.463Z,92.70
2018-08-28T21:59:25.510Z,92.80
2018-08-28T22:01:53.577Z,92.80
2018-08-28T22:04:21.636Z,92.90
2018-08-28T22:07:58.007Z,93.30
2018-08-28T22:10:26.130Z,93.00
2018-08-28T22:12:54.172Z,93.10
2018-08-28T22:15:22.224Z,93.30
2018-08-28T22:17:50.265Z,93.10
2018-08-28T22:20:18.302Z,93.40
2018-08-28T22:22:46.402Z,93.40
2018-08-28T22:25:14.538Z,93.50
2018-08-28T22:27:42.586Z,93.50
2018-08-28T22:30:11.289Z,93.60
2018-08-28T22:32:40.293Z,93.60
2018-08-28T22:35:08.462Z,94.00
2018-08-28T22:37:36.631Z,94.30
2018-08-28T22:40:06.679Z,94.10
2018-08-28T22:42:34.729Z,94.10
2018-08-28T22:45:02.796Z,94.30
2018-08-28T22:47:30.862Z,94.30
2018-08-28T22:49:58.947Z,94.50
2018-08-28T22:52:26.981Z,94.80
2018-08-28T22:54:55.011Z,94.50
2018-08-28T22:57:23.555Z,95.20
2018-08-28T22:59:51.617Z,94.70
2018-08-28T23:02:19.665Z,94.90
2018-08-28T23:04:47.711Z,95.10
2018-08-28T23:07:15.750Z,95.30
2018-08-28T23:09:43.782Z,95.20
2018-08-28T23:12:12.277Z,95.30
2018-08-28T23:14:40.300Z,95.40
2018-08-28T23:17:08.342Z,95.30
2018-08-28T23:19:36.391Z,95.30
2018-08-28T23:22:04.431Z,95.30
2018-08-28T23:24:32.542Z,95.50
2018-08-28T23:27:00.583Z,95.40
2018-08-28T23:29:28.622Z,95.30
2018-08-28T23:31:56.673Z,95.30
2018-08-28T23:34:24.712Z,95.30
2018-08-28T23:36:52.761Z,95.30
2018-08-28T23:39:20.798Z,95.30
2018-08-28T23:41:48.862Z,95.50
2018-08-28T23:44:16.893Z,95.40
2018-08-28T23:46:44.934Z,95.40
2018-08-28T23:49:12.974Z,95.40
2018-08-28T23:51:41.014Z,95.40
2018-08-28T23:54:09.045Z,95.60
2018-08-28T23:56:37.087Z,95.50
2018-08-28T23:59:05.190Z,95.80
